createdAt,value
2023-05-11T00:02:17.278Z,15.30
2023-05-11T00:04:45.453Z,13.23
2023-05-11T00:07:13.542Z,13.50
2023-05-11T00:09:41.812Z,14.40
2023-05-11T00:12:09.878Z,14.60
2023-05-11T00:14:39.392Z,14.05
2023-05-11T00:17:07.508Z,13.85
2023-05-11T00:19:35.599Z,14.32
2023-05-11T00:22:03.712Z,13.65
2023-05-11T00:24:31.754Z,14.63
2023-05-11T00:26:59.808Z,13.73
2023-05-11T00:29:27.844Z,14.90
2023-05-11T00:31:57.309Z,14.38
2023-05-11T00:34:25.488Z,14.55
2023-05-11T00:36:55.191Z,13.48
2023-05-11T00:39:23.218Z,13.65
2023-05-11T00:41:51.260Z,13.88
2023-05-11T00:44:19.341Z,13.80
2023-05-11T00:46:47.790Z,14.65
2023-05-11T00:49:21.357Z,14.90
2023-05-11T00:51:49.444Z,14.23
2023-05-11T00:54:17.693Z,13.85
2023-05-11T00:56:46.300Z,13.68
2023-05-11T00:59:14.360Z,14.38
2023-05-11T01:01:42.465Z,14.43
2023-05-11T01:04:10.984Z,13.95
2023-05-11T01:06:48.946Z,14.35
2023-05-11T01:09:28.888Z,14.02
2023-05-11T01:12:08.123Z,13.52
2023-05-11T01:14:40.517Z,15.07
2023-05-11T01:17:12.936Z,13.52
2023-05-11T01:19:44.574Z,15.30
2023-05-11T01:22:29.931Z,14.77
2023-05-11T01:25:11.642Z,14.68
2023-05-11T01:27:50.389Z,15.88
2023-05-11T01:30:27.762Z,14.98
2023-05-11T01:32:59.480Z,15.43
2023-05-11T01:35:28.792Z,15.68
2023-05-11T01:37:59.563Z,14.93
2023-05-11T01:40:33.567Z,15.70
2023-05-11T01:43:04.950Z,15.73
2023-05-11T01:45:40.391Z,16.58
2023-05-11T01:48:12.668Z,16.02
2023-05-11T01:50:42.340Z,16.25
2023-05-11T01:53:13.053Z,16.65
2023-05-11T01:55:42.285Z,16.05
2023-05-11T01:58:11.698Z,16.45
2023-05-11T02:00:42.594Z,15.90
2023-05-11T02:03:11.953Z,16.33
2023-05-11T02:05:41.535Z,16.75
2023-05-11T02:08:10.132Z,16.40
2023-05-11T02:10:39.892Z,16.70
2023-05-11T02:13:09.926Z,16.48
2023-05-11T02:15:43.359Z,17.25
2023-05-11T02:18:15.667Z,16.95
2023-05-11T02:20:47.380Z,17.27
2023-05-11T02:23:17.537Z,16.88
2023-05-11T02:25:46.072Z,16.27
2023-05-11T02:28:14.143Z,17.45
2023-05-11T02:30:47.567Z,15.15
2023-05-11T02:33:20.700Z,16.23
2023-05-11T02:35:50.622Z,15.73
2023-05-11T02:38:19.645Z,15.35
2023-05-11T02:40:51.290Z,15.48
2023-05-11T02:43:25.497Z,14.82
2023-05-11T02:46:03.996Z,15.85
2023-05-11T02:48:37.688Z,14.77
2023-05-11T02:51:08.874Z,14.52
2023-05-11T02:53:43.959Z,14.15
2023-05-11T02:56:12.244Z,15.00
2023-05-11T02:58:40.568Z,14.88
2023-05-11T03:01:23.439Z,16.23
2023-05-11T03:03:51.997Z,14.52
2023-05-11T03:06:20.146Z,14.77
2023-05-11T03:08:48.379Z,15.60
2023-05-11T03:11:18.964Z,15.75
2023-05-11T03:13:50.124Z,16.10
2023-05-11T03:16:21.503Z,17.48
2023-05-11T03:18:52.192Z,16.35
2023-05-11T03:21:21.885Z,18.15
2023-05-11T03:23:51.200Z,15.80
2023-05-11T03:26:21.406Z,16.10
2023-05-11T03:28:51.948Z,14.25
2023-05-11T03:31:20.212Z,15.85
2023-05-11T03:33:48.527Z,15.07
2023-05-11T03:36:19.324Z,15.25
2023-05-11T03:38:48.547Z,14.93
2023-05-11T03:41:19.206Z,14.38
2023-05-11T03:43:53.456Z,14.30
2023-05-11T03:46:24.252Z,15.32
2023-05-11T03:48:53.848Z,14.88
2023-05-11T03:51:27.253Z,16.10
2023-05-11T03:53:56.013Z,14.95
2023-05-11T03:56:24.139Z,15.38
2023-05-11T03:58:54.311Z,14.65
2023-05-11T04:01:24.120Z,17.80
2023-05-11T04:03:54.850Z,17.10
2023-05-11T04:09:22.230Z,15.57
2023-05-11T04:11:51.126Z,15.27
2023-05-11T04:14:20.770Z,14.85
2023-05-11T04:16:49.716Z,13.10
2023-05-11T04:19:18.217Z,14.65
2023-05-11T04:21:48.009Z,15.68
2023-05-11T04:24:16.461Z,15.07
2023-05-11T04:26:44.918Z,14.63
2023-05-11T04:29:16.221Z,16.40
2023-05-11T04:31:44.990Z,14.25
2023-05-11T04:34:13.572Z,14.02
2023-05-11T04:36:42.811Z,13.98
2023-05-11T04:39:13.301Z,13.57
2023-05-11T04:41:41.712Z,13.30
2023-05-11T04:44:10.483Z,14.20
2023-05-11T04:46:39.997Z,13.88
2023-05-11T04:49:09.133Z,14.00
2023-05-11T04:51:40.728Z,14.18
2023-05-11T04:54:17.056Z,13.60
2023-05-11T04:56:47.364Z,12.93
2023-05-11T04:59:16.277Z,13.00
2023-05-11T05:01:44.753Z,12.15
2023-05-11T05:04:13.098Z,12.77
2023-05-11T05:06:41.435Z,11.55
2023-05-11T05:09:10.448Z,12.13
2023-05-11T05:11:38.875Z,11.43
2023-05-11T05:14:09.234Z,11.70
2023-05-11T05:16:37.692Z,12.75
2023-05-11T05:19:06.077Z,11.13
2023-05-11T05:21:35.926Z,11.48
2023-05-11T05:24:06.265Z,12.27
2023-05-11T05:26:34.750Z,11.23
2023-05-11T05:29:03.556Z,10.10
2023-05-11T05:31:33.431Z,9.80
2023-05-11T05:34:02.549Z,9.43
2023-05-11T05:36:31.140Z,10.57
2023-05-11T05:38:59.438Z,10.52
2023-05-11T05:41:28.033Z,11.63
2023-05-11T05:43:56.567Z,11.02
2023-05-11T05:46:24.867Z,10.48
2023-05-11T05:48:57.591Z,10.77
2023-05-11T05:51:25.968Z,11.25
2023-05-11T05:53:54.313Z,12.32
2023-05-11T05:56:23.147Z,12.10
2023-05-11T05:58:51.508Z,12.52
2023-05-11T06:01:20.356Z,12.80
2023-05-11T06:03:49.047Z,13.02
2023-05-11T06:06:19.004Z,12.48
2023-05-11T06:08:47.322Z,11.18
2023-05-11T06:11:15.655Z,12.13
2023-05-11T06:13:43.749Z,11.50
2023-05-11T06:16:11.993Z,9.57
2023-05-11T06:18:40.201Z,9.35
2023-05-11T06:21:09.155Z,8.95
2023-05-11T06:23:38.769Z,7.97
2023-05-11T06:26:06.880Z,7.60
2023-05-11T06:28:35.920Z,6.18
2023-05-11T06:31:07.039Z,5.95
2023-05-11T06:33:37.477Z,5.30
2023-05-11T06:36:10.924Z,5.15
2023-05-11T06:38:40.554Z,4.60
2023-05-11T06:41:11.408Z,4.93
2023-05-11T06:43:39.665Z,4.43
2023-05-11T06:46:19.461Z,5.05
2023-05-11T06:48:47.638Z,4.88
2023-05-11T06:51:15.747Z,5.88
2023-05-11T06:53:46.798Z,6.88
2023-05-11T06:56:14.877Z,7.05
2023-05-11T06:58:43.028Z,6.75
2023-05-11T07:01:12.755Z,7.18
2023-05-11T07:03:40.887Z,8.05
2023-05-11T07:06:09.208Z,7.93
2023-05-11T07:08:37.300Z,7.80
2023-05-11T07:11:06.868Z,8.25
2023-05-11T07:13:34.997Z,8.43
2023-05-11T07:16:03.109Z,8.35
2023-05-11T07:18:31.728Z,9.00
2023-05-11T07:20:59.866Z,6.95
2023-05-11T07:23:27.934Z,7.10
2023-05-11T07:25:57.574Z,6.30
2023-05-11T07:28:27.540Z,7.07
2023-05-11T07:30:55.659Z,6.57
2023-05-11T07:33:23.838Z,7.07
2023-05-11T07:35:52.812Z,6.88
2023-05-11T07:38:21.192Z,6.45
2023-05-11T07:40:49.219Z,6.95
2023-05-11T07:43:17.256Z,5.97
2023-05-11T07:45:46.774Z,5.78
2023-05-11T07:48:14.913Z,6.40
2023-05-11T07:50:44.003Z,6.47
2023-05-11T07:53:12.478Z,6.43
2023-05-11T07:55:40.684Z,6.00
2023-05-11T07:58:09.068Z,6.35
2023-05-11T08:00:37.563Z,6.35
2023-05-11T08:03:07.530Z,5.95
2023-05-11T08:05:37.925Z,6.70
2023-05-11T08:08:06.506Z,6.35
2023-05-11T08:10:34.629Z,6.20
2023-05-11T08:13:02.731Z,5.80
2023-05-11T08:15:31.198Z,5.32
2023-05-11T08:17:59.367Z,5.63
2023-05-11T08:20:28.894Z,6.35
2023-05-11T08:22:57.902Z,4.95
2023-05-11T08:25:25.951Z,5.82
2023-05-11T08:27:54.038Z,5.35
2023-05-11T08:30:22.541Z,4.93
2023-05-11T08:32:58.732Z,5.32
2023-05-11T08:35:28.842Z,5.85
2023-05-11T08:37:56.895Z,5.00
2023-05-11T08:40:28.757Z,5.28
2023-05-11T08:42:57.924Z,5.40
2023-05-11T08:45:27.410Z,5.10
2023-05-11T08:47:55.730Z,5.30
2023-05-11T08:50:23.979Z,5.40
2023-05-11T08:52:53.456Z,5.07
2023-05-11T08:55:23.402Z,5.32
2023-05-11T08:57:54.400Z,5.03
2023-05-11T09:00:24.145Z,4.90
2023-05-11T09:02:53.481Z,5.00
2023-05-11T09:05:22.201Z,4.43
2023-05-11T09:07:54.407Z,4.60
2023-05-11T09:10:22.751Z,4.13
2023-05-11T09:12:51.587Z,4.60
2023-05-11T09:15:21.773Z,5.35
2023-05-11T09:17:57.969Z,4.95
2023-05-11T09:20:32.011Z,4.32
2023-05-11T09:23:09.785Z,5.32
2023-05-11T09:25:42.752Z,4.88
2023-05-11T09:28:15.870Z,4.90
2023-05-11T09:30:50.467Z,4.97
2023-05-11T09:33:27.567Z,4.97
2023-05-11T09:36:01.099Z,4.45
2023-05-11T09:38:31.117Z,4.25
2023-05-11T09:41:05.306Z,4.50
2023-05-11T09:43:34.187Z,5.22
2023-05-11T09:46:07.710Z,4.70
2023-05-11T09:48:36.776Z,4.50
2023-05-11T09:51:06.992Z,5.03
2023-05-11T09:53:52.273Z,4.60
2023-05-11T09:56:43.722Z,4.25
2023-05-11T09:59:19.802Z,4.30
2023-05-11T10:02:01.943Z,4.70
2023-05-11T10:04:34.196Z,3.78
2023-05-11T10:07:04.880Z,3.92
2023-05-11T10:09:35.207Z,3.40
2023-05-11T10:12:04.377Z,3.55
2023-05-11T10:14:34.658Z,3.35
2023-05-11T10:17:04.293Z,3.78
2023-05-11T10:19:34.153Z,3.28
2023-05-11T10:22:03.837Z,2.80
2023-05-11T10:24:34.509Z,2.95
2023-05-11T10:27:05.047Z,3.50
2023-05-11T10:29:34.035Z,3.45
2023-05-11T10:32:03.403Z,3.05
2023-05-11T10:34:33.733Z,3.15
2023-05-11T10:37:02.900Z,3.20
2023-05-11T10:39:31.956Z,3.40
2023-05-11T10:42:36.387Z,3.05
2023-05-11T10:45:17.684Z,3.42
2023-05-11T10:48:26.118Z,3.55
2023-05-11T10:51:05.610Z,3.88
2023-05-11T10:53:47.627Z,3.88
2023-05-11T10:56:30.532Z,3.72
2023-05-11T10:59:22.494Z,3.92
2023-05-11T11:01:52.370Z,3.90
2023-05-11T11:04:20.797Z,3.42
2023-05-11T11:07:05.547Z,4.60
2023-05-11T11:09:52.717Z,4.15
2023-05-11T11:12:22.452Z,4.40
2023-05-11T11:15:00.256Z,4.65
2023-05-11T11:17:32.062Z,4.90
2023-05-11T11:20:02.189Z,5.15
2023-05-11T11:22:50.396Z,5.10
2023-05-11T11:26:00.920Z,5.20
2023-05-11T11:28:29.166Z,5.03
2023-05-11T11:31:26.733Z,5.30
2023-05-11T11:33:59.390Z,4.90
2023-05-11T11:37:03.531Z,5.57
2023-05-11T11:39:50.170Z,5.03
2023-05-11T11:42:19.736Z,5.18
2023-05-11T11:44:48.556Z,5.07
2023-05-11T11:47:19.884Z,5.20
2023-05-11T11:49:50.440Z,4.80
2023-05-11T11:52:34.747Z,5.30
2023-05-11T11:55:05.361Z,5.50
2023-05-11T11:57:51.226Z,5.03
2023-05-11T12:00:22.829Z,5.30
2023-05-11T12:02:54.511Z,5.20
2023-05-11T12:05:28.920Z,5.20
2023-05-11T12:08:01.304Z,5.13
2023-05-11T12:10:29.783Z,5.13
2023-05-11T12:13:00.180Z,4.88
2023-05-11T12:15:30.686Z,4.88
2023-05-11T12:18:02.868Z,4.88
2023-05-11T12:20:31.235Z,4.88
2023-05-11T12:22:59.603Z,4.60
2023-05-11T12:25:28.120Z,4.28
2023-05-11T12:28:00.479Z,4.13
2023-05-11T12:30:30.603Z,4.28
2023-05-11T12:33:01.460Z,4.57
2023-05-11T12:35:32.271Z,4.50
2023-05-11T12:38:02.382Z,4.60
2023-05-11T12:40:32.074Z,4.53
2023-05-11T12:43:01.542Z,4.28
2023-05-11T12:45:30.376Z,3.95
2023-05-11T12:48:00.671Z,3.72
2023-05-11T12:50:29.047Z,3.55
2023-05-11T12:53:13.562Z,3.70
2023-05-11T12:55:41.940Z,4.00
2023-05-11T12:58:11.942Z,4.10
2023-05-11T13:00:52.628Z,4.57
2023-05-11T13:03:26.650Z,4.00
2023-05-11T13:06:05.840Z,3.88
2023-05-11T13:08:34.340Z,3.33
2023-05-11T13:11:17.814Z,3.35
2023-05-11T13:13:46.177Z,3.35
2023-05-11T13:16:25.736Z,2.50
2023-05-11T13:19:03.390Z,2.55
2023-05-11T13:21:33.258Z,2.65
2023-05-11T13:24:03.927Z,2.45
2023-05-11T13:26:32.965Z,1.98
2023-05-11T13:31:32.535Z,2.38
2023-05-11T13:34:02.209Z,2.30
2023-05-11T13:36:31.493Z,2.50
2023-05-11T13:39:00.647Z,2.03
2023-05-11T13:41:35.760Z,2.00
2023-05-11T13:44:04.408Z,2.10
2023-05-11T13:46:32.826Z,2.40
2023-05-11T13:49:03.881Z,2.22
2023-05-11T13:51:33.020Z,2.25
2023-05-11T13:54:02.610Z,2.30
2023-05-11T13:56:31.012Z,2.20
2023-05-11T13:59:00.078Z,2.40
2023-05-11T14:01:28.775Z,2.20
2023-05-11T14:03:57.959Z,2.53
2023-05-11T14:06:27.789Z,2.75
2023-05-11T14:08:56.131Z,2.60
2023-05-11T14:11:24.391Z,2.90
2023-05-11T14:13:53.046Z,2.60
2023-05-11T14:16:21.617Z,3.03
2023-05-11T14:18:50.894Z,2.50
2023-05-11T14:21:19.339Z,3.00
2023-05-11T14:24:05.965Z,3.00
2023-05-11T14:26:37.309Z,2.70
2023-05-11T14:29:05.619Z,2.60
2023-05-11T14:31:35.410Z,3.30
2023-05-11T14:34:04.089Z,3.35
2023-05-11T14:36:32.902Z,3.47
2023-05-11T14:39:02.763Z,3.53
2023-05-11T14:41:31.454Z,3.30
2023-05-11T14:43:59.775Z,3.90
2023-05-11T14:46:28.163Z,3.40
2023-05-11T14:48:56.375Z,3.40
2023-05-11T14:51:24.652Z,3.33
2023-05-11T14:53:53.223Z,3.20
2023-05-11T14:56:23.423Z,3.55
2023-05-11T14:58:51.729Z,3.25
2023-05-11T15:01:20.014Z,3.20
2023-05-11T15:03:48.404Z,3.08
2023-05-11T15:06:21.235Z,3.00
2023-05-11T15:08:49.695Z,3.50
2023-05-11T15:11:18.330Z,3.58
2023-05-11T15:13:48.570Z,4.00
2023-05-11T15:16:16.967Z,3.88
2023-05-11T15:18:45.312Z,3.88
2023-05-11T15:21:13.637Z,3.88
2023-05-11T15:23:41.927Z,4.30
2023-05-11T15:26:10.361Z,4.82
2023-05-11T15:28:38.650Z,4.28
2023-05-11T15:31:08.523Z,4.47
2023-05-11T15:33:37.026Z,4.95
2023-05-11T15:36:06.520Z,5.80
2023-05-11T15:38:34.837Z,6.35
2023-05-11T15:41:03.825Z,5.93
2023-05-11T15:43:32.753Z,6.18
2023-05-11T15:46:01.121Z,6.85
2023-05-11T15:48:30.924Z,6.47
2023-05-11T15:51:01.267Z,7.15
2023-05-11T15:53:30.031Z,6.85
2023-05-11T15:55:58.483Z,6.60
2023-05-11T15:58:26.754Z,6.68
2023-05-11T16:00:56.249Z,7.47
2023-05-11T16:03:26.488Z,7.15
2023-05-11T16:05:56.373Z,6.78
2023-05-11T16:08:24.671Z,6.78
2023-05-11T16:10:52.927Z,7.00
2023-05-11T16:13:21.292Z,6.30
2023-05-11T16:15:49.815Z,6.68
2023-05-11T16:18:19.828Z,6.22
2023-05-11T16:20:48.559Z,6.38
2023-05-11T16:23:18.330Z,6.43
2023-05-11T16:25:47.665Z,6.45
2023-05-11T16:28:15.691Z,6.55
2023-05-11T16:30:43.735Z,6.10
2023-05-11T16:33:11.790Z,6.22
2023-05-11T16:35:39.935Z,6.88
2023-05-11T16:38:07.939Z,6.68
2023-05-11T16:40:37.397Z,6.57
2023-05-11T16:43:06.185Z,7.20
2023-05-11T16:45:34.161Z,7.50
2023-05-11T16:48:02.212Z,7.85
2023-05-11T16:50:30.381Z,8.18
2023-05-11T16:52:58.652Z,7.50
2023-05-11T16:55:26.757Z,7.63
2023-05-11T16:57:56.113Z,8.02
2023-05-11T17:00:24.137Z,8.25
2023-05-11T17:02:52.257Z,8.48
2023-05-11T17:05:21.578Z,8.68
2023-05-11T17:07:49.692Z,8.25
2023-05-11T17:10:18.355Z,9.07
2023-05-11T17:12:46.672Z,8.48
2023-05-11T17:15:16.216Z,9.85
2023-05-11T17:17:44.349Z,9.07
2023-05-11T17:20:13.445Z,9.10
2023-05-11T17:22:41.480Z,9.52
2023-05-11T17:25:10.290Z,9.10
2023-05-11T17:27:38.505Z,9.45
2023-05-11T17:30:07.671Z,8.95
2023-05-11T17:32:38.260Z,8.80
2023-05-11T17:35:07.773Z,9.23
2023-05-11T17:37:35.821Z,9.07
2023-05-11T17:40:05.200Z,8.18
2023-05-11T17:42:34.198Z,9.32
2023-05-11T17:45:02.552Z,8.70
2023-05-11T17:47:31.330Z,8.80
2023-05-11T17:50:00.984Z,8.95
2023-05-11T17:52:29.062Z,8.82
2023-05-11T17:54:58.624Z,8.88
2023-05-11T17:57:27.828Z,8.38
2023-05-11T17:59:55.876Z,7.72
2023-05-11T18:02:24.310Z,8.18
2023-05-11T18:04:52.410Z,7.85
2023-05-11T18:07:21.802Z,7.88
2023-05-11T18:09:49.819Z,8.63
2023-05-11T18:12:17.822Z,7.80
2023-05-11T18:14:45.873Z,8.30
2023-05-11T18:17:14.303Z,8.50
2023-05-11T18:19:42.840Z,9.07
2023-05-11T18:22:11.389Z,9.35
2023-05-11T18:24:40.768Z,9.73
2023-05-11T18:27:08.783Z,9.75
2023-05-11T18:29:37.434Z,10.00
2023-05-11T18:32:06.082Z,9.52
2023-05-11T18:34:34.534Z,9.80
2023-05-11T18:37:02.910Z,10.90
2023-05-11T18:39:31.079Z,11.60
2023-05-11T18:42:02.606Z,12.90
2023-05-11T18:44:30.722Z,12.50
2023-05-11T18:46:58.790Z,13.60
2023-05-11T18:49:27.176Z,15.80
2023-05-11T18:51:55.695Z,15.50
2023-05-11T18:54:23.779Z,15.90
2023-05-11T18:56:51.855Z,16.10
2023-05-11T18:59:21.240Z,18.20
2023-05-11T19:01:49.362Z,18.27
2023-05-11T19:04:19.825Z,17.52
2023-05-11T19:06:48.176Z,17.70
2023-05-11T19:09:16.364Z,17.92
2023-05-11T19:11:44.484Z,16.58
2023-05-11T19:14:14.695Z,18.42
2023-05-11T19:16:44.306Z,17.48
2023-05-11T19:19:12.836Z,17.08
2023-05-11T19:21:42.498Z,15.40
2023-05-11T19:24:11.625Z,15.63
2023-05-11T19:26:39.900Z,16.52
2023-05-11T19:29:09.356Z,15.30
2023-05-11T19:31:37.469Z,15.70
2023-05-11T19:34:07.113Z,15.85
2023-05-11T19:36:35.794Z,16.80
2023-05-11T19:39:04.423Z,16.52
2023-05-11T19:41:33.247Z,15.85
2023-05-11T19:44:01.738Z,14.65
2023-05-11T19:46:30.072Z,14.90
2023-05-11T19:48:58.124Z,14.63
2023-05-11T19:51:27.550Z,14.00
2023-05-11T19:53:55.930Z,15.32
2023-05-11T19:56:23.927Z,13.82
2023-05-11T19:58:51.943Z,14.30
2023-05-11T20:01:19.980Z,13.48
2023-05-11T20:03:48.236Z,13.63
2023-05-11T20:06:16.424Z,13.40
2023-05-11T20:08:48.474Z,12.48
2023-05-11T20:11:16.888Z,12.80
2023-05-11T20:13:46.792Z,12.60
2023-05-11T20:16:15.295Z,12.13
2023-05-11T20:18:43.560Z,11.88
2023-05-11T20:21:11.740Z,12.57
2023-05-11T20:23:40.393Z,11.43
2023-05-11T20:26:09.847Z,11.35
2023-05-11T20:28:39.461Z,12.77
2023-05-11T20:31:09.606Z,12.10
2023-05-11T20:36:09.420Z,13.10
2023-05-11T20:38:37.502Z,12.10
2023-05-11T20:41:05.636Z,13.35
2023-05-11T20:43:35.052Z,13.48
2023-05-11T20:46:05.770Z,13.68
2023-05-11T20:48:40.504Z,13.85
2023-05-11T20:51:10.198Z,14.23
2023-05-11T20:53:38.396Z,14.57
2023-05-11T20:56:06.773Z,14.35
2023-05-11T20:58:36.283Z,15.18
2023-05-11T21:01:04.325Z,15.60
2023-05-11T21:03:32.583Z,16.02
2023-05-11T21:06:00.658Z,16.75
2023-05-11T21:08:28.732Z,16.35
2023-05-11T21:10:56.838Z,16.02
2023-05-11T21:13:24.999Z,16.17
2023-05-11T21:15:54.497Z,17.02
2023-05-11T21:18:23.243Z,16.30
2023-05-11T21:20:51.873Z,17.27
2023-05-11T21:23:20.273Z,17.90
2023-05-11T21:25:53.090Z,17.50
2023-05-11T21:28:21.133Z,18.52
2023-05-11T21:30:50.091Z,17.23
2023-05-11T21:33:19.754Z,18.17
2023-05-11T21:35:47.885Z,17.98
2023-05-11T21:38:17.132Z,17.42
2023-05-11T21:40:45.328Z,18.63
2023-05-11T21:43:14.043Z,19.38
2023-05-11T21:45:42.209Z,19.77
2023-05-11T21:48:10.196Z,19.92
2023-05-11T21:50:39.633Z,19.67
2023-05-11T21:53:07.701Z,19.50
2023-05-11T21:55:36.172Z,20.42
2023-05-11T21:58:04.480Z,19.92
2023-05-11T22:00:33.037Z,19.40
2023-05-11T22:03:01.431Z,20.08
2023-05-11T22:05:29.581Z,19.38
2023-05-11T22:08:13.177Z,19.35
2023-05-11T22:10:43.012Z,19.83
2023-05-11T22:13:11.149Z,20.40
2023-05-11T22:15:39.339Z,19.23
2023-05-11T22:18:07.410Z,20.63
2023-05-11T22:20:35.546Z,20.15
2023-05-11T22:23:04.962Z,20.58
2023-05-11T22:25:33.184Z,21.00
2023-05-11T22:28:01.277Z,20.60
2023-05-11T22:30:29.268Z,20.58
2023-05-11T22:32:57.382Z,21.67
2023-05-11T22:35:25.733Z,20.08
2023-05-11T22:37:54.235Z,21.88
2023-05-11T22:40:23.647Z,20.88
2023-05-11T22:42:51.790Z,21.45
2023-05-11T22:45:19.842Z,21.77
2023-05-11T22:47:48.400Z,22.13
2023-05-11T22:50:16.565Z,23.02
2023-05-11T22:52:44.720Z,22.25
2023-05-11T22:55:13.072Z,22.90
2023-05-11T22:57:42.673Z,23.45
2023-05-11T23:00:11.703Z,22.05
2023-05-11T23:02:40.273Z,23.25
2023-05-11T23:05:09.330Z,22.63
2023-05-11T23:07:37.365Z,22.58
2023-05-11T23:10:06.011Z,24.02
2023-05-11T23:12:34.030Z,24.77
2023-05-11T23:15:03.813Z,22.98
2023-05-11T23:17:31.870Z,22.52
2023-05-11T23:20:00.058Z,23.83
2023-05-11T23:22:28.092Z,24.65
2023-05-11T23:24:56.746Z,24.65
2023-05-11T23:27:24.795Z,24.80
2023-05-11T23:29:52.889Z,24.17
2023-05-11T23:32:22.295Z,24.65
2023-05-11T23:34:50.300Z,25.60
2023-05-11T23:37:18.333Z,25.63
2023-05-11T23:39:46.325Z,25.13
2023-05-11T23:42:14.488Z,25.42
2023-05-11T23:44:42.544Z,24.13
2023-05-11T23:47:10.666Z,24.85
2023-05-11T23:49:40.114Z,25.98
2023-05-11T23:52:09.490Z,24.75
2023-05-11T23:54:37.654Z,24.55
2023-05-11T23:57:06.219Z,24.70
2023-05-11T23:59:34.223Z,25.75
